sensor_id;sensor_type;location;lat;lon;timestamp;temperature;humidity
29939;DHT22;16799;50.844;5.304;2022-07-22T00:00:22;17.30;99.90
29939;DHT22;16799;50.844;5.304;2022-07-22T00:02:48;17.20;99.90
29939;DHT22;16799;50.844;5.304;2022-07-22T00:05:14;17.10;99.90
29939;DHT22;16799;50.844;5.304;2022-07-22T00:07:40;17.20;99.90
29939;DHT22;16799;50.844;5.304;2022-07-22T00:10:07;17.20;99.90
29939;DHT22;16799;50.844;5.304;2022-07-22T00:12:33;17.20;99.90
29939;DHT22;16799;50.844;5.304;2022-07-22T00:14:59;17.30;99.90
29939;DHT22;16799;50.844;5.304;2022-07-22T00:17:24;17.40;99.90
29939;DHT22;16799;50.844;5.304;2022-07-22T00:19:50;17.40;99.90
29939;DHT22;16799;50.844;5.304;2022-07-22T00:22:16;17.50;99.90
29939;DHT22;16799;50.844;5.304;2022-07-22T00:24:41;17.60;99.90
29939;DHT22;16799;50.844;5.304;2022-07-22T00:27:07;17.50;99.90
29939;DHT22;16799;50.844;5.304;2022-07-22T00:29:32;17.60;99.90
29939;DHT22;16799;50.844;5.304;2022-07-22T00:31:58;17.60;99.90
29939;DHT22;16799;50.844;5.304;2022-07-22T00:34:24;17.70;99.90
29939;DHT22;16799;50.844;5.304;2022-07-22T00:36:49;17.70;99.90
29939;DHT22;16799;50.844;5.304;2022-07-22T00:39:15;17.60;99.90
29939;DHT22;16799;50.844;5.304;2022-07-22T00:41:41;17.60;99.90
29939;DHT22;16799;50.844;5.304;2022-07-22T00:44:08;17.70;99.90
29939;DHT22;16799;50.844;5.304;2022-07-22T00:46:35;17.60;99.90
29939;DHT22;16799;50.844;5.304;2022-07-22T00:49:03;17.60;99.90
29939;DHT22;16799;50.844;5.304;2022-07-22T00:51:29;17.60;99.90
29939;DHT22;16799;50.844;5.304;2022-07-22T00:53:56;17.60;99.90
29939;DHT22;16799;50.844;5.304;2022-07-22T00:56:23;17.70;99.90
29939;DHT22;16799;50.844;5.304;2022-07-22T00:58:51;17.70;99.90
29939;DHT22;16799;50.844;5.304;2022-07-22T01:01:17;17.60;99.90
29939;DHT22;16799;50.844;5.304;2022-07-22T01:03:42;17.70;99.90
29939;DHT22;16799;50.844;5.304;2022-07-22T01:06:09;17.70;99.90
29939;DHT22;16799;50.844;5.304;2022-07-22T01:08:35;17.70;99.90
29939;DHT22;16799;50.844;5.304;2022-07-22T01:11:15;17.70;99.90
29939;DHT22;16799;50.844;5.304;2022-07-22T01:13:42;17.50;99.90
29939;DHT22;16799;50.844;5.304;2022-07-22T01:16:09;17.50;99.90
29939;DHT22;16799;50.844;5.304;2022-07-22T01:18:36;17.60;99.90
29939;DHT22;16799;50.844;5.304;2022-07-22T01:21:02;17.60;99.90
29939;DHT22;16799;50.844;5.304;2022-07-22T01:23:27;17.70;99.90
29939;DHT22;16799;50.844;5.304;2022-07-22T01:25:54;17.70;99.90
29939;DHT22;16799;50.844;5.304;2022-07-22T01:28:20;17.70;99.90
29939;DHT22;16799;50.844;5.304;2022-07-22T01:30:46;17.60;99.90
29939;DHT22;16799;50.844;5.304;2022-07-22T01:33:11;17.70;99.90
29939;DHT22;16799;50.844;5.304;2022-07-22T01:35:37;17.60;99.90
29939;DHT22;16799;50.844;5.304;2022-07-22T01:38:03;17.50;99.90
29939;DHT22;16799;50.844;5.304;2022-07-22T01:40:29;17.30;99.90
29939;DHT22;16799;50.844;5.304;2022-07-22T01:42:54;17.20;99.90
29939;DHT22;16799;50.844;5.304;2022-07-22T01:45:20;17.00;99.90
29939;DHT22;16799;50.844;5.304;2022-07-22T01:47:46;16.90;99.90
29939;DHT22;16799;50.844;5.304;2022-07-22T01:50:11;16.80;99.90
29939;DHT22;16799;50.844;5.304;2022-07-22T01:52:38;16.70;99.90
29939;DHT22;16799;50.844;5.304;2022-07-22T01:55:08;16.70;99.90
29939;DHT22;16799;50.844;5.304;2022-07-22T01:57:36;16.70;99.90
29939;DHT22;16799;50.844;5.304;2022-07-22T02:00:06;16.70;99.90
29939;DHT22;16799;50.844;5.304;2022-07-22T02:02:33;16.60;99.90
29939;DHT22;16799;50.844;5.304;2022-07-22T02:04:59;16.60;99.90
29939;DHT22;16799;50.844;5.304;2022-07-22T02:07:25;16.40;99.90
29939;DHT22;16799;50.844;5.304;2022-07-22T02:09:52;16.40;99.90
29939;DHT22;16799;50.844;5.304;2022-07-22T02:12:18;16.50;99.90
29939;DHT22;16799;50.844;5.304;2022-07-22T02:14:44;16.50;99.90
29939;DHT22;16799;50.844;5.304;2022-07-22T02:17:10;16.60;99.90
29939;DHT22;16799;50.844;5.304;2022-07-22T02:19:36;16.60;99.90
29939;DHT22;16799;50.844;5.304;2022-07-22T02:22:02;16.70;99.90
29939;DHT22;16799;50.844;5.304;2022-07-22T02:24:27;16.70;99.90
29939;DHT22;16799;50.844;5.304;2022-07-22T02:26:53;16.70;99.90
29939;DHT22;16799;50.844;5.304;2022-07-22T02:29:18;16.70;99.90
29939;DHT22;16799;50.844;5.304;2022-07-22T02:31:44;16.60;99.90
29939;DHT22;16799;50.844;5.304;2022-07-22T02:34:10;16.60;99.90
29939;DHT22;16799;50.844;5.304;2022-07-22T02:36:35;16.50;99.90
29939;DHT22;16799;50.844;5.304;2022-07-22T02:39:02;16.50;99.90
29939;DHT22;16799;50.844;5.304;2022-07-22T02:41:27;16.50;99.90
29939;DHT22;16799;50.844;5.304;2022-07-22T02:43:53;16.40;99.90
29939;DHT22;16799;50.844;5.304;2022-07-22T02:46:23;16.20;99.90
29939;DHT22;16799;50.844;5.304;2022-07-22T02:48:49;16.20;99.90
29939;DHT22;16799;50.844;5.304;2022-07-22T02:51:15;16.10;99.90
29939;DHT22;16799;50.844;5.304;2022-07-22T02:53:41;16.10;99.90
29939;DHT22;16799;50.844;5.304;2022-07-22T02:56:07;16.20;99.90
29939;DHT22;16799;50.844;5.304;2022-07-22T02:58:33;16.20;99.90
29939;DHT22;16799;50.844;5.304;2022-07-22T03:00:59;16.10;99.90
29939;DHT22;16799;50.844;5.304;2022-07-22T03:03:24;16.00;99.90
29939;DHT22;16799;50.844;5.304;2022-07-22T03:05:50;15.70;99.90
29939;DHT22;16799;50.844;5.304;2022-07-22T03:08:16;15.80;99.90
29939;DHT22;16799;50.844;5.304;2022-07-22T03:10:42;15.70;99.90
29939;DHT22;16799;50.844;5.304;2022-07-22T03:13:07;15.80;99.90
29939;DHT22;16799;50.844;5.304;2022-07-22T03:15:33;15.90;99.90
29939;DHT22;16799;50.844;5.304;2022-07-22T03:17:59;15.90;99.90
29939;DHT22;16799;50.844;5.304;2022-07-22T03:20:25;16.00;99.90
29939;DHT22;16799;50.844;5.304;2022-07-22T03:22:50;16.00;99.90
29939;DHT22;16799;50.844;5.304;2022-07-22T03:25:16;16.00;99.90
29939;DHT22;16799;50.844;5.304;2022-07-22T03:27:42;16.00;99.90
29939;DHT22;16799;50.844;5.304;2022-07-22T03:30:07;15.90;99.90
29939;DHT22;16799;50.844;5.304;2022-07-22T03:32:33;15.80;99.90
29939;DHT22;16799;50.844;5.304;2022-07-22T03:34:59;15.80;99.90
29939;DHT22;16799;50.844;5.304;2022-07-22T03:37:25;15.90;99.90
29939;DHT22;16799;50.844;5.304;2022-07-22T03:39:50;15.90;99.90
29939;DHT22;16799;50.844;5.304;2022-07-22T03:42:16;15.80;99.90
29939;DHT22;16799;50.844;5.304;2022-07-22T03:44:42;15.60;99.90
29939;DHT22;16799;50.844;5.304;2022-07-22T03:47:07;15.60;99.90
29939;DHT22;16799;50.844;5.304;2022-07-22T03:49:33;15.50;99.90
29939;DHT22;16799;50.844;5.304;2022-07-22T03:51:59;15.70;99.90
29939;DHT22;16799;50.844;5.304;2022-07-22T03:54:24;15.80;99.90
29939;DHT22;16799;50.844;5.304;2022-07-22T03:56:50;15.90;99.90
29939;DHT22;16799;50.844;5.304;2022-07-22T03:59:16;15.90;99.90
29939;DHT22;16799;50.844;5.304;2022-07-22T04:01:42;15.90;99.90
29939;DHT22;16799;50.844;5.304;2022-07-22T04:04:08;15.80;99.90
29939;DHT22;16799;50.844;5.304;2022-07-22T04:06:33;15.90;99.90
29939;DHT22;16799;50.844;5.304;2022-07-22T04:09:00;15.90;99.90
29939;DHT22;16799;50.844;5.304;2022-07-22T04:11:26;15.90;99.90
29939;DHT22;16799;50.844;5.304;2022-07-22T04:13:52;15.90;99.90
29939;DHT22;16799;50.844;5.304;2022-07-22T04:16:17;15.80;99.90
29939;DHT22;16799;50.844;5.304;2022-07-22T04:18:43;15.70;99.90
29939;DHT22;16799;50.844;5.304;2022-07-22T04:21:09;15.70;99.90
29939;DHT22;16799;50.844;5.304;2022-07-22T04:23:35;15.80;99.90
29939;DHT22;16799;50.844;5.304;2022-07-22T04:26:01;15.70;99.90
29939;DHT22;16799;50.844;5.304;2022-07-22T04:28:26;15.70;99.90
29939;DHT22;16799;50.844;5.304;2022-07-22T04:30:52;15.80;99.90
29939;DHT22;16799;50.844;5.304;2022-07-22T04:33:18;15.90;99.90
29939;DHT22;16799;50.844;5.304;2022-07-22T04:35:43;15.80;99.90
29939;DHT22;16799;50.844;5.304;2022-07-22T04:38:09;15.80;99.90
29939;DHT22;16799;50.844;5.304;2022-07-22T04:40:35;15.70;99.90
29939;DHT22;16799;50.844;5.304;2022-07-22T04:43:02;15.80;99.90
29939;DHT22;16799;50.844;5.304;2022-07-22T04:45:27;15.80;99.90
29939;DHT22;16799;50.844;5.304;2022-07-22T04:47:53;15.70;99.90
29939;DHT22;16799;50.844;5.304;2022-07-22T04:50:18;15.70;99.90
29939;DHT22;16799;50.844;5.304;2022-07-22T04:52:44;15.70;99.90
29939;DHT22;16799;50.844;5.304;2022-07-22T04:55:10;15.80;99.90
29939;DHT22;16799;50.844;5.304;2022-07-22T04:57:36;15.90;99.90
29939;DHT22;16799;50.844;5.304;2022-07-22T05:00:03;16.00;99.90
29939;DHT22;16799;50.844;5.304;2022-07-22T05:02:28;16.00;99.90
29939;DHT22;16799;50.844;5.304;2022-07-22T05:04:54;16.10;99.90
29939;DHT22;16799;50.844;5.304;2022-07-22T05:07:20;16.20;99.90
29939;DHT22;16799;50.844;5.304;2022-07-22T05:09:45;16.30;99.90
29939;DHT22;16799;50.844;5.304;2022-07-22T05:12:11;16.40;99.90
29939;DHT22;16799;50.844;5.304;2022-07-22T05:14:36;16.40;99.90
29939;DHT22;16799;50.844;5.304;2022-07-22T05:17:02;16.50;99.90
29939;DHT22;16799;50.844;5.304;2022-07-22T05:19:28;16.50;99.90
29939;DHT22;16799;50.844;5.304;2022-07-22T05:21:53;16.50;99.90
29939;DHT22;16799;50.844;5.304;2022-07-22T05:24:19;16.60;99.90
29939;DHT22;16799;50.844;5.304;2022-07-22T05:26:45;16.60;99.90
29939;DHT22;16799;50.844;5.304;2022-07-22T05:29:10;16.70;99.90
29939;DHT22;16799;50.844;5.304;2022-07-22T05:31:36;16.70;99.90
29939;DHT22;16799;50.844;5.304;2022-07-22T05:34:01;16.70;99.90
29939;DHT22;16799;50.844;5.304;2022-07-22T05:36:28;16.80;99.90
29939;DHT22;16799;50.844;5.304;2022-07-22T05:38:54;16.80;99.90
29939;DHT22;16799;50.844;5.304;2022-07-22T05:41:20;16.90;99.90
29939;DHT22;16799;50.844;5.304;2022-07-22T05:43:46;17.00;99.90
29939;DHT22;16799;50.844;5.304;2022-07-22T05:46:11;17.00;99.90
29939;DHT22;16799;50.844;5.304;2022-07-22T05:48:37;17.10;99.90
29939;DHT22;16799;50.844;5.304;2022-07-22T05:51:03;17.20;99.90
29939;DHT22;16799;50.844;5.304;2022-07-22T05:53:28;17.30;99.90
29939;DHT22;16799;50.844;5.304;2022-07-22T05:55:54;17.50;99.90
29939;DHT22;16799;50.844;5.304;2022-07-22T05:58:20;17.60;99.90
29939;DHT22;16799;50.844;5.304;2022-07-22T06:00:46;17.70;99.90
29939;DHT22;16799;50.844;5.304;2022-07-22T06:03:11;17.90;99.90
29939;DHT22;16799;50.844;5.304;2022-07-22T06:05:37;17.90;99.90
29939;DHT22;16799;50.844;5.304;2022-07-22T06:08:03;17.90;99.90
29939;DHT22;16799;50.844;5.304;2022-07-22T06:10:29;18.10;99.90
29939;DHT22;16799;50.844;5.304;2022-07-22T06:12:54;18.30;99.90
29939;DHT22;16799;50.844;5.304;2022-07-22T06:15:20;18.30;99.90
29939;DHT22;16799;50.844;5.304;2022-07-22T06:17:46;18.30;99.90
29939;DHT22;16799;50.844;5.304;2022-07-22T06:20:11;18.40;99.90
29939;DHT22;16799;50.844;5.304;2022-07-22T06:22:40;18.50;99.90
29939;DHT22;16799;50.844;5.304;2022-07-22T06:25:06;18.50;99.90
29939;DHT22;16799;50.844;5.304;2022-07-22T06:27:31;18.60;99.90
29939;DHT22;16799;50.844;5.304;2022-07-22T06:29:57;18.70;99.90
29939;DHT22;16799;50.844;5.304;2022-07-22T06:32:23;18.90;99.90
29939;DHT22;16799;50.844;5.304;2022-07-22T06:34:49;19.10;99.90
29939;DHT22;16799;50.844;5.304;2022-07-22T06:37:14;19.10;99.90
29939;DHT22;16799;50.844;5.304;2022-07-22T06:39:40;19.50;99.90
29939;DHT22;16799;50.844;5.304;2022-07-22T06:42:06;19.60;99.90
29939;DHT22;16799;50.844;5.304;2022-07-22T06:44:31;19.70;99.90
29939;DHT22;16799;50.844;5.304;2022-07-22T06:46:57;19.70;99.90
29939;DHT22;16799;50.844;5.304;2022-07-22T06:49:22;19.60;99.90
29939;DHT22;16799;50.844;5.304;2022-07-22T06:51:48;19.50;99.90
29939;DHT22;16799;50.844;5.304;2022-07-22T06:54:14;19.50;99.90
29939;DHT22;16799;50.844;5.304;2022-07-22T06:56:39;19.60;99.90
29939;DHT22;16799;50.844;5.304;2022-07-22T06:59:05;19.80;99.90
29939;DHT22;16799;50.844;5.304;2022-07-22T07:01:31;19.90;99.90
29939;DHT22;16799;50.844;5.304;2022-07-22T07:03:56;19.80;99.90
29939;DHT22;16799;50.844;5.304;2022-07-22T07:06:22;19.90;99.90
29939;DHT22;16799;50.844;5.304;2022-07-22T07:08:48;19.90;99.90
29939;DHT22;16799;50.844;5.304;2022-07-22T07:11:13;20.00;99.90
29939;DHT22;16799;50.844;5.304;2022-07-22T07:13:39;20.50;99.90
29939;DHT22;16799;50.844;5.304;2022-07-22T07:16:05;20.60;99.90
29939;DHT22;16799;50.844;5.304;2022-07-22T07:18:32;20.60;99.90
29939;DHT22;16799;50.844;5.304;2022-07-22T07:20:57;20.80;99.90
29939;DHT22;16799;50.844;5.304;2022-07-22T07:23:23;21.10;99.90
29939;DHT22;16799;50.844;5.304;2022-07-22T07:25:49;21.00;99.90
29939;DHT22;16799;50.844;5.304;2022-07-22T07:28:15;21.10;99.90
29939;DHT22;16799;50.844;5.304;2022-07-22T07:30:41;21.20;99.90
29939;DHT22;16799;50.844;5.304;2022-07-22T07:33:06;21.10;99.90
29939;DHT22;16799;50.844;5.304;2022-07-22T07:35:32;21.50;99.90
29939;DHT22;16799;50.844;5.304;2022-07-22T07:37:59;21.60;99.90
29939;DHT22;16799;50.844;5.304;2022-07-22T07:40:25;22.00;99.90
29939;DHT22;16799;50.844;5.304;2022-07-22T07:42:51;22.10;99.90
29939;DHT22;16799;50.844;5.304;2022-07-22T07:45:17;22.00;98.90
29939;DHT22;16799;50.844;5.304;2022-07-22T07:47:42;22.00;98.80
29939;DHT22;16799;50.844;5.304;2022-07-22T07:50:09;22.10;97.90
29939;DHT22;16799;50.844;5.304;2022-07-22T07:52:42;22.00;97.60
29939;DHT22;16799;50.844;5.304;2022-07-22T07:55:09;22.00;97.90
29939;DHT22;16799;50.844;5.304;2022-07-22T07:57:36;21.90;98.70
29939;DHT22;16799;50.844;5.304;2022-07-22T08:00:05;22.00;98.10
29939;DHT22;16799;50.844;5.304;2022-07-22T08:02:31;21.90;97.70
29939;DHT22;16799;50.844;5.304;2022-07-22T08:04:56;22.00;98.10
29939;DHT22;16799;50.844;5.304;2022-07-22T08:07:22;22.00;97.00
29939;DHT22;16799;50.844;5.304;2022-07-22T08:09:48;22.00;96.90
29939;DHT22;16799;50.844;5.304;2022-07-22T08:12:14;22.10;95.40
29939;DHT22;16799;50.844;5.304;2022-07-22T08:14:39;22.40;96.40
29939;DHT22;16799;50.844;5.304;2022-07-22T08:17:05;22.50;96.00
29939;DHT22;16799;50.844;5.304;2022-07-22T08:19:31;22.60;94.40
29939;DHT22;16799;50.844;5.304;2022-07-22T08:21:57;22.40;95.00
29939;DHT22;16799;50.844;5.304;2022-07-22T08:24:22;22.20;96.00
29939;DHT22;16799;50.844;5.304;2022-07-22T08:26:48;22.10;96.50
29939;DHT22;16799;50.844;5.304;2022-07-22T08:29:14;22.20;96.40
29939;DHT22;16799;50.844;5.304;2022-07-22T08:31:39;22.20;96.20
29939;DHT22;16799;50.844;5.304;2022-07-22T08:34:05;22.60;98.60
29939;DHT22;16799;50.844;5.304;2022-07-22T08:36:31;23.00;95.00
29939;DHT22;16799;50.844;5.304;2022-07-22T08:38:57;22.80;93.10
29939;DHT22;16799;50.844;5.304;2022-07-22T08:41:24;23.00;96.40
29939;DHT22;16799;50.844;5.304;2022-07-22T08:43:51;23.60;97.20
29939;DHT22;16799;50.844;5.304;2022-07-22T08:46:17;23.90;95.80
29939;DHT22;16799;50.844;5.304;2022-07-22T08:48:43;23.90;94.50
29939;DHT22;16799;50.844;5.304;2022-07-22T08:51:09;24.00;91.30
29939;DHT22;16799;50.844;5.304;2022-07-22T08:53:35;24.30;92.40
29939;DHT22;16799;50.844;5.304;2022-07-22T08:56:00;24.40;92.10
29939;DHT22;16799;50.844;5.304;2022-07-22T08:58:27;24.50;92.20
29939;DHT22;16799;50.844;5.304;2022-07-22T09:01:13;24.60;91.40
29939;DHT22;16799;50.844;5.304;2022-07-22T09:03:58;24.40;91.30
29939;DHT22;16799;50.844;5.304;2022-07-22T09:06:26;24.30;90.10
29939;DHT22;16799;50.844;5.304;2022-07-22T09:11:21;24.30;90.10
29939;DHT22;16799;50.844;5.304;2022-07-22T09:13:47;24.30;90.60
29939;DHT22;16799;50.844;5.304;2022-07-22T09:16:13;24.40;87.90
29939;DHT22;16799;50.844;5.304;2022-07-22T09:18:50;24.30;87.50
29939;DHT22;16799;50.844;5.304;2022-07-22T09:21:16;24.50;88.80
29939;DHT22;16799;50.844;5.304;2022-07-22T09:23:43;24.70;89.20
29939;DHT22;16799;50.844;5.304;2022-07-22T09:26:29;25.10;90.10
29939;DHT22;16799;50.844;5.304;2022-07-22T09:28:56;25.40;86.70
29939;DHT22;16799;50.844;5.304;2022-07-22T09:31:27;25.40;88.30
29939;DHT22;16799;50.844;5.304;2022-07-22T09:33:53;25.50;83.00
29939;DHT22;16799;50.844;5.304;2022-07-22T09:36:19;25.40;86.30
29939;DHT22;16799;50.844;5.304;2022-07-22T09:38:45;25.40;88.20
29939;DHT22;16799;50.844;5.304;2022-07-22T09:41:11;25.60;85.30
29939;DHT22;16799;50.844;5.304;2022-07-22T09:43:37;25.70;84.00
29939;DHT22;16799;50.844;5.304;2022-07-22T09:46:03;25.80;84.80
29939;DHT22;16799;50.844;5.304;2022-07-22T09:48:30;25.50;85.20
29939;DHT22;16799;50.844;5.304;2022-07-22T09:50:56;25.70;84.90
29939;DHT22;16799;50.844;5.304;2022-07-22T09:53:24;25.80;85.70
29939;DHT22;16799;50.844;5.304;2022-07-22T09:55:50;26.20;84.10
29939;DHT22;16799;50.844;5.304;2022-07-22T09:58:16;26.40;82.70
29939;DHT22;16799;50.844;5.304;2022-07-22T10:00:42;26.50;80.10
29939;DHT22;16799;50.844;5.304;2022-07-22T10:03:12;27.00;81.80
29939;DHT22;16799;50.844;5.304;2022-07-22T10:05:42;27.60;82.80
29939;DHT22;16799;50.844;5.304;2022-07-22T10:08:08;27.90;76.80
29939;DHT22;16799;50.844;5.304;2022-07-22T10:10:36;28.50;79.60
29939;DHT22;16799;50.844;5.304;2022-07-22T10:13:04;29.00;75.00
29939;DHT22;16799;50.844;5.304;2022-07-22T10:15:31;29.00;74.40
29939;DHT22;16799;50.844;5.304;2022-07-22T10:18:05;28.60;73.20
29939;DHT22;16799;50.844;5.304;2022-07-22T10:20:32;28.50;75.00
29939;DHT22;16799;50.844;5.304;2022-07-22T10:23:03;28.60;72.30
29939;DHT22;16799;50.844;5.304;2022-07-22T10:25:52;28.40;75.80
29939;DHT22;16799;50.844;5.304;2022-07-22T10:30:50;29.50;71.80
29939;DHT22;16799;50.844;5.304;2022-07-22T10:33:20;29.80;73.30
29939;DHT22;16799;50.844;5.304;2022-07-22T10:35:53;30.00;72.40
29939;DHT22;16799;50.844;5.304;2022-07-22T10:38:20;30.10;69.70
29939;DHT22;16799;50.844;5.304;2022-07-22T10:40:56;30.40;71.20
29939;DHT22;16799;50.844;5.304;2022-07-22T10:46:07;30.60;66.00
29939;DHT22;16799;50.844;5.304;2022-07-22T10:51:10;27.60;72.50
29939;DHT22;16799;50.844;5.304;2022-07-22T10:53:45;27.50;76.90
29939;DHT22;16799;50.844;5.304;2022-07-22T11:01:05;28.40;74.00
29939;DHT22;16799;50.844;5.304;2022-07-22T11:03:33;28.60;73.00
29939;DHT22;16799;50.844;5.304;2022-07-22T11:06:25;28.90;69.30
29939;DHT22;16799;50.844;5.304;2022-07-22T11:09:11;29.40;70.20
29939;DHT22;16799;50.844;5.304;2022-07-22T11:11:44;29.60;71.40
29939;DHT22;16799;50.844;5.304;2022-07-22T11:14:19;29.80;68.60
29939;DHT22;16799;50.844;5.304;2022-07-22T11:16:46;30.20;69.00
29939;DHT22;16799;50.844;5.304;2022-07-22T11:19:13;30.90;69.00
29939;DHT22;16799;50.844;5.304;2022-07-22T11:21:38;32.30;64.60
29939;DHT22;16799;50.844;5.304;2022-07-22T11:24:06;32.80;62.00
29939;DHT22;16799;50.844;5.304;2022-07-22T11:26:45;33.00;64.20
29939;DHT22;16799;50.844;5.304;2022-07-22T11:29:16;32.40;64.00
29939;DHT22;16799;50.844;5.304;2022-07-22T11:31:42;32.00;61.00
29939;DHT22;16799;50.844;5.304;2022-07-22T11:34:15;32.00;62.40
29939;DHT22;16799;50.844;5.304;2022-07-22T11:36:43;31.90;61.00
29939;DHT22;16799;50.844;5.304;2022-07-22T11:39:10;32.30;63.10
29939;DHT22;16799;50.844;5.304;2022-07-22T11:41:37;32.70;61.40
29939;DHT22;16799;50.844;5.304;2022-07-22T11:44:03;32.60;62.40
29939;DHT22;16799;50.844;5.304;2022-07-22T11:46:43;32.90;61.80
29939;DHT22;16799;50.844;5.304;2022-07-22T11:49:13;33.30;62.60
29939;DHT22;16799;50.844;5.304;2022-07-22T11:51:39;33.70;59.80
29939;DHT22;16799;50.844;5.304;2022-07-22T11:54:06;33.50;62.90
29939;DHT22;16799;50.844;5.304;2022-07-22T11:56:31;33.60;60.80
29939;DHT22;16799;50.844;5.304;2022-07-22T11:58:57;33.70;58.70
29939;DHT22;16799;50.844;5.304;2022-07-22T12:01:28;33.70;59.50
29939;DHT22;16799;50.844;5.304;2022-07-22T12:03:58;33.90;58.30
29939;DHT22;16799;50.844;5.304;2022-07-22T12:06:24;33.90;59.50
29939;DHT22;16799;50.844;5.304;2022-07-22T12:08:55;33.40;58.40
29939;DHT22;16799;50.844;5.304;2022-07-22T12:11:22;33.10;61.70
29939;DHT22;16799;50.844;5.304;2022-07-22T12:13:51;32.20;59.10
29939;DHT22;16799;50.844;5.304;2022-07-22T12:16:29;32.70;59.80
29939;DHT22;16799;50.844;5.304;2022-07-22T12:19:07;33.30;62.20
29939;DHT22;16799;50.844;5.304;2022-07-22T12:21:53;34.20;56.60
29939;DHT22;16799;50.844;5.304;2022-07-22T12:24:41;34.70;55.30
29939;DHT22;16799;50.844;5.304;2022-07-22T12:27:13;35.30;57.30
29939;DHT22;16799;50.844;5.304;2022-07-22T12:32:10;35.50;55.00
29939;DHT22;16799;50.844;5.304;2022-07-22T12:34:47;35.60;55.50
29939;DHT22;16799;50.844;5.304;2022-07-22T12:37:31;35.30;55.40
29939;DHT22;16799;50.844;5.304;2022-07-22T12:42:36;35.30;57.80
29939;DHT22;16799;50.844;5.304;2022-07-22T12:45:15;35.90;55.00
29939;DHT22;16799;50.844;5.304;2022-07-22T12:47:46;36.00;56.80
29939;DHT22;16799;50.844;5.304;2022-07-22T12:52:45;35.20;55.50
29939;DHT22;16799;50.844;5.304;2022-07-22T12:55:10;34.80;55.10
29939;DHT22;16799;50.844;5.304;2022-07-22T12:57:36;35.30;55.80
29939;DHT22;16799;50.844;5.304;2022-07-22T13:00:02;36.50;55.80
29939;DHT22;16799;50.844;5.304;2022-07-22T13:02:28;37.60;53.20
29939;DHT22;16799;50.844;5.304;2022-07-22T13:04:55;37.80;54.30
29939;DHT22;16799;50.844;5.304;2022-07-22T13:07:20;38.80;52.10
29939;DHT22;16799;50.844;5.304;2022-07-22T13:09:46;38.70;49.90
29939;DHT22;16799;50.844;5.304;2022-07-22T13:12:12;38.70;49.90
29939;DHT22;16799;50.844;5.304;2022-07-22T13:14:37;39.10;50.00
29939;DHT22;16799;50.844;5.304;2022-07-22T13:17:03;38.20;50.40
29939;DHT22;16799;50.844;5.304;2022-07-22T13:19:29;38.10;50.90
29939;DHT22;16799;50.844;5.304;2022-07-22T13:21:55;38.30;50.80
29939;DHT22;16799;50.844;5.304;2022-07-22T13:24:20;39.30;51.20
29939;DHT22;16799;50.844;5.304;2022-07-22T13:26:46;39.70;48.20
29939;DHT22;16799;50.844;5.304;2022-07-22T13:29:12;39.80;47.10
29939;DHT22;16799;50.844;5.304;2022-07-22T13:31:38;40.40;46.60
29939;DHT22;16799;50.844;5.304;2022-07-22T13:34:04;39.90;47.50
29939;DHT22;16799;50.844;5.304;2022-07-22T13:36:29;39.70;46.80
29939;DHT22;16799;50.844;5.304;2022-07-22T13:38:59;38.60;49.00
29939;DHT22;16799;50.844;5.304;2022-07-22T13:41:25;38.00;49.40
29939;DHT22;16799;50.844;5.304;2022-07-22T13:43:51;37.90;50.40
29939;DHT22;16799;50.844;5.304;2022-07-22T13:46:18;37.50;49.80
29939;DHT22;16799;50.844;5.304;2022-07-22T13:48:44;37.40;49.90
29939;DHT22;16799;50.844;5.304;2022-07-22T13:51:11;37.40;47.50
29939;DHT22;16799;50.844;5.304;2022-07-22T13:53:37;37.40;50.40
29939;DHT22;16799;50.844;5.304;2022-07-22T13:56:04;37.60;48.80
29939;DHT22;16799;50.844;5.304;2022-07-22T13:58:30;36.60;50.10
29939;DHT22;16799;50.844;5.304;2022-07-22T14:00:57;36.60;49.60
29939;DHT22;16799;50.844;5.304;2022-07-22T14:03:22;36.60;50.00
29939;DHT22;16799;50.844;5.304;2022-07-22T14:05:48;35.70;50.60
29939;DHT22;16799;50.844;5.304;2022-07-22T14:08:14;35.20;52.80
29939;DHT22;16799;50.844;5.304;2022-07-22T14:10:40;34.50;52.20
29939;DHT22;16799;50.844;5.304;2022-07-22T14:13:05;34.20;53.10
29939;DHT22;16799;50.844;5.304;2022-07-22T14:15:32;33.80;53.20
29939;DHT22;16799;50.844;5.304;2022-07-22T14:17:58;34.00;53.80
29939;DHT22;16799;50.844;5.304;2022-07-22T14:20:24;34.20;54.30
29939;DHT22;16799;50.844;5.304;2022-07-22T14:22:50;34.30;55.70
29939;DHT22;16799;50.844;5.304;2022-07-22T14:25:15;34.30;53.30
29939;DHT22;16799;50.844;5.304;2022-07-22T14:27:41;34.50;53.50
29939;DHT22;16799;50.844;5.304;2022-07-22T14:30:07;34.10;53.20
29939;DHT22;16799;50.844;5.304;2022-07-22T14:32:32;33.10;52.80
29939;DHT22;16799;50.844;5.304;2022-07-22T14:34:58;33.60;55.20
29939;DHT22;16799;50.844;5.304;2022-07-22T14:37:24;34.40;52.40
29939;DHT22;16799;50.844;5.304;2022-07-22T14:39:51;34.90;50.20
29939;DHT22;16799;50.844;5.304;2022-07-22T14:42:16;35.30;53.50
29939;DHT22;16799;50.844;5.304;2022-07-22T14:44:42;36.40;50.60
29939;DHT22;16799;50.844;5.304;2022-07-22T14:47:08;37.20;50.40
29939;DHT22;16799;50.844;5.304;2022-07-22T14:49:33;37.00;49.50
29939;DHT22;16799;50.844;5.304;2022-07-22T14:51:59;36.50;51.20
29939;DHT22;16799;50.844;5.304;2022-07-22T14:54:24;36.20;51.70
29939;DHT22;16799;50.844;5.304;2022-07-22T14:56:50;35.90;50.60
29939;DHT22;16799;50.844;5.304;2022-07-22T14:59:16;36.40;50.60
29939;DHT22;16799;50.844;5.304;2022-07-22T15:01:41;36.20;51.50
29939;DHT22;16799;50.844;5.304;2022-07-22T15:04:07;35.90;52.30
29939;DHT22;16799;50.844;5.304;2022-07-22T15:06:32;36.00;51.10
29939;DHT22;16799;50.844;5.304;2022-07-22T15:08:58;36.10;50.00
29939;DHT22;16799;50.844;5.304;2022-07-22T15:11:24;35.90;51.30
29939;DHT22;16799;50.844;5.304;2022-07-22T15:13:49;35.50;53.00
29939;DHT22;16799;50.844;5.304;2022-07-22T15:16:15;35.60;50.90
29939;DHT22;16799;50.844;5.304;2022-07-22T15:18:41;35.70;50.40
29939;DHT22;16799;50.844;5.304;2022-07-22T15:21:06;36.50;51.30
29939;DHT22;16799;50.844;5.304;2022-07-22T15:23:32;36.80;50.20
29939;DHT22;16799;50.844;5.304;2022-07-22T15:25:59;35.90;51.40
29939;DHT22;16799;50.844;5.304;2022-07-22T15:28:26;35.80;51.70
29939;DHT22;16799;50.844;5.304;2022-07-22T15:30:52;35.80;50.90
29939;DHT22;16799;50.844;5.304;2022-07-22T15:33:17;36.00;51.40
29939;DHT22;16799;50.844;5.304;2022-07-22T15:35:45;36.60;52.50
29939;DHT22;16799;50.844;5.304;2022-07-22T15:38:11;37.20;49.80
29939;DHT22;16799;50.844;5.304;2022-07-22T15:40:36;37.00;50.20
29939;DHT22;16799;50.844;5.304;2022-07-22T15:43:07;36.70;49.60
29939;DHT22;16799;50.844;5.304;2022-07-22T15:45:33;36.00;51.00
29939;DHT22;16799;50.844;5.304;2022-07-22T15:48:00;35.40;52.20
29939;DHT22;16799;50.844;5.304;2022-07-22T15:50:25;34.70;53.70